This is the latest recevied weather packets stored in our database for station/object KE9DBJ-13. If no packets are shown the sender has not sent any weather packets the latest 10 day(s).
| Time | Temp. | Humidity | Pressure | Rain* | Wind** | Luminosity | Snow |
|---|---|---|---|---|---|---|---|
| 1777351202 | 16.11° C | 98% | 1009.6 hPa | 3.56 mm | - | - | - |
| 1777350602 | 16.11° C | 98% | 1009.5 hPa | 5.08 mm | - | - | - |
| 1777350002 | 16.11° C | 98% | 1009.3 hPa | 3.81 mm | - | - | - |
| 1777349402 | 16.11° C | 98% | 1009.1 hPa | 1.02 mm | - | - | - |
| 1777348802 | 16.11° C | 98% | 1009.4 hPa | 3.3 mm | - | - | - |
| 1777348202 | 16.11° C | 98% | 1009.6 hPa | 12.19 mm | - | - | - |
| 1777347602 | 16.11° C | 98% | 1011.6 hPa | 24.64 mm | - | - | - |
| 1777347002 | 16.11° C | 96% | 1008.9 hPa | 5.84 mm | - | - | - |
| 1777346402 | 16.11° C | 96% | 1009.1 hPa | 7.87 mm | - | - | - |
| 1777345802 | 16.11° C | 97% | 1009.4 hPa | 8.64 mm | - | - | - |
| 1777345202 | 16.11° C | 97% | 1009.3 hPa | 5.08 mm | - | - | - |
| 1777344602 | 16.11° C | 95% | 1010.1 hPa | 3.56 mm | - | - | - |
| 1777344003 | 16.67° C | 94% | 1010.6 hPa | 2.54 mm | - | - | - |
| 1777343403 | 16.67° C | 94% | 1009.7 hPa | 1.27 mm | - | - | - |
| 1777342803 | 16.67° C | 95% | 1009.3 hPa | 1.52 mm | - | - | - |
| 1777342203 | 16.67° C | 94% | 1008.7 hPa | 1.52 mm | - | - | - |
| 1777341603 | 16.67° C | 95% | 1008.3 hPa | 2.03 mm | - | - | - |
| 1777341003 | 16.67° C | 96% | 1010.7 hPa | 2.03 mm | - | - | - |
| 1777340403 | 16.67° C | 97% | 1011.7 hPa | 2.54 mm | - | - | - |
| 1777339803 | 16.67° C | 97% | 1012.8 hPa | 3.56 mm | - | - | - |
| 1777339203 | 16.67° C | 96% | 1012.8 hPa | 3.81 mm | - | - | - |
| 1777338603 | 16.67° C | 96% | 1013.1 hPa | 2.03 mm | - | - | - |
| 1777338003 | 17.22° C | 95% | 1010.5 hPa | 2.03 mm | - | - | - |
| 1777337403 | 17.22° C | 96% | 1009.6 hPa | 2.03 mm | - | - | - |
| 1777336803 | 17.22° C | 97% | 1012.3 hPa | 3.3 mm | - | - | - |
* Rain latest hour (hover to see other rain measurements)
** Current wind speed in m/s (hover to see current wind gust speed)